Time;durP1;ratioP1;P1;durP2;ratioP2;P2;SDS_P1;SDS_P2;PMS_P1;PMS_P2;Temp;Humidity;BMP_temperature;BMP_pressure;BME280_temperature;BME280_humidity;BME280_pressure;Samples;Min_cycle;Max_cycle;Signal;HPM_P1;HPM_P2
2022/11/17 00:01:47;;;;;;;1.38;1.27;;;;;;;-7.80;50.44;97224.47;6184879;28;20831;-68
2022/11/17 00:04:51;;;;;;;1.65;1.20;;;;;;;-7.80;50.77;97219.34;6180801;28;20042;-70
2022/11/17 00:07:52;;;;;;;3.35;1.25;;;;;;;-7.75;50.82;97217.72;6176172;28;20051;-67
2022/11/17 00:11:00;;;;;;;1.25;1.10;;;;;;;-7.80;50.64;97218.50;6181694;28;20042;-68
2022/11/17 00:17:28;;;;;;;3.17;1.20;;;;;;;-7.76;50.87;97231.31;6193360;28;20042;-68
2022/11/17 00:23:52;;;;;;;0.93;0.90;;;;;;;-7.77;51.08;97249.19;6184774;28;20102;-68
2022/11/17 00:27:02;;;;;;;2.85;1.10;;;;;;;-7.83;51.32;97244.00;6181659;28;20050;-67
2022/11/17 00:30:05;;;;;;;1.70;1.00;;;;;;;-7.86;51.46;97249.94;6176641;28;20042;-75
2022/11/17 00:36:27;;;;;;;2.15;1.38;;;;;;;-7.84;51.20;97258.50;6182357;28;20094;-67
2022/11/17 00:39:34;;;;;;;2.00;1.00;;;;;;;-7.82;51.96;97261.91;6176936;28;20050;-69
2022/11/17 00:42:35;;;;;;;1.63;1.08;;;;;;;-7.86;51.81;97262.72;6174917;28;20155;-68
2022/11/17 00:45:41;;;;;;;1.45;1.10;;;;;;;-7.89;52.06;97275.44;6160555;28;20054;-66
2022/11/17 00:48:47;;;;;;;1.10;1.00;;;;;;;-7.89;52.08;97278.00;6180112;28;20038;-67
2022/11/17 00:51:52;;;;;;;3.42;1.40;;;;;;;-7.90;51.84;97278.81;6179762;28;21030;-65
2022/11/17 00:54:53;;;;;;;1.20;1.10;;;;;;;-7.89;51.73;97274.59;6183148;28;20050;-67
2022/11/17 00:57:54;;;;;;;1.45;1.20;;;;;;;-7.93;52.29;97289.00;6182668;28;20058;-65
2022/11/17 01:00:59;;;;;;;1.50;1.35;;;;;;;-7.89;52.54;97282.25;6181612;28;20057;-66
2022/11/17 01:04:03;;;;;;;1.45;1.00;;;;;;;-7.85;52.48;97292.50;6181364;28;20053;-66
2022/11/17 01:07:04;;;;;;;1.92;1.30;;;;;;;-7.84;52.84;97284.03;6180921;28;20049;-65
2022/11/17 01:10:06;;;;;;;3.42;1.60;;;;;;;-7.91;52.82;97292.44;6186129;28;20039;-66
2022/11/17 01:13:11;;;;;;;1.38;1.23;;;;;;;-7.96;53.46;97288.94;6176545;28;20054;-66
2022/11/17 01:16:16;;;;;;;1.60;1.25;;;;;;;-8.02;53.51;97291.41;6178317;28;20133;-68
2022/11/17 01:19:21;;;;;;;1.35;1.10;;;;;;;-8.11;53.79;97293.84;6176609;28;20105;-65
2022/11/17 01:22:27;;;;;;;4.38;1.75;;;;;;;-8.54;54.04;97272.81;6181330;28;20532;-70
2022/11/17 01:25:30;;;;;;;2.28;1.50;;;;;;;-8.42;54.27;97298.50;6179811;28;20053;-70
2022/11/17 01:28:37;;;;;;;4.15;1.73;;;;;;;-8.50;54.37;97290.72;6178895;28;20042;-71
2022/11/17 01:31:42;;;;;;;2.90;1.70;;;;;;;-8.40;54.21;97300.25;6177636;28;20196;-67
2022/11/17 01:34:44;;;;;;;2.88;2.17;;;;;;;-8.36;54.41;97303.66;6184890;28;20042;-71
2022/11/17 01:37:46;;;;;;;2.53;1.55;;;;;;;-8.23;54.65;97300.47;6184135;28;20477;-71
2022/11/17 01:40:55;;;;;;;2.13;1.58;;;;;;;-8.46;54.18;97264.44;6179861;28;20050;-67
2022/11/17 01:44:18;;;;;;;2.22;1.50;;;;;;;-8.14;54.57;97308.28;6182991;28;20053;-69
2022/11/17 01:47:37;;;;;;;3.10;1.40;;;;;;;-8.08;54.47;97304.09;6184863;28;20047;-66
2022/11/17 01:50:46;;;;;;;7.40;2.15;;;;;;;-8.42;54.62;97244.91;6180009;28;20050;-67
2022/11/17 01:53:50;;;;;;;1.85;1.58;;;;;;;-8.07;54.32;97309.22;6180173;28;20082;-68
2022/11/17 01:56:58;;;;;;;3.25;2.08;;;;;;;-8.03;54.82;97313.56;6190832;28;20086;-67
2022/11/17 02:00:05;;;;;;;2.20;1.73;;;;;;;-8.01;54.42;97323.78;6206985;28;20062;-76
2022/11/17 02:03:09;;;;;;;2.42;1.90;;;;;;;-7.97;54.40;97323.00;6213363;28;20050;-74
2022/11/17 02:06:23;;;;;;;5.95;2.35;;;;;;;-7.98;54.51;97340.03;6215075;28;20535;-67
2022/11/17 02:09:32;;;;;;;2.55;1.30;;;;;;;-7.94;55.01;97344.31;6199579;28;20054;-67
2022/11/17 02:12:37;;;;;;;2.78;1.50;;;;;;;-7.91;54.47;97346.91;6182253;28;20042;-67
2022/11/17 02:15:42;;;;;;;3.40;1.90;;;;;;;-7.94;55.24;97338.38;6183692;28;21628;-67
2022/11/17 02:18:46;;;;;;;3.35;1.50;;;;;;;-7.97;55.16;97351.94;6183914;28;20149;-68
2022/11/17 02:22:12;;;;;;;1.30;1.20;;;;;;;-7.98;55.51;97357.91;6180089;28;20513;-66
2022/11/17 02:25:28;;;;;;;1.95;1.55;;;;;;;-7.96;55.22;97363.00;6187354;28;20509;-68
2022/11/17 02:28:36;;;;;;;2.88;1.52;;;;;;;-8.05;55.23;97356.06;6184934;28;20647;-66
2022/11/17 02:31:52;;;;;;;1.98;1.50;;;;;;;-8.03;54.70;97358.66;6183268;28;20047;-67
2022/11/17 02:35:23;;;;;;;1.40;1.30;;;;;;;-7.98;54.59;97368.13;6164023;28;20034;-68
2022/11/17 02:38:42;;;;;;;1.98;1.30;;;;;;;-7.91;54.75;97380.13;6166003;28;20096;-66
2022/11/17 02:42:04;;;;;;;1.48;1.20;;;;;;;-7.83;55.08;97381.97;6181976;28;20050;-67
2022/11/17 02:45:12;;;;;;;2.67;1.65;;;;;;;-7.86;54.71;97375.09;6180839;28;20046;-67
2022/11/17 02:48:21;;;;;;;1.52;1.42;;;;;;;-7.88;54.41;97376.75;6183518;28;20054;-68
2022/11/17 02:51:24;;;;;;;2.20;1.50;;;;;;;-7.88;54.60;97379.31;6186313;28;20046;-67
2022/11/17 02:54:31;;;;;;;3.38;1.40;;;;;;;-7.88;54.34;97384.44;6172502;28;20054;-67
2022/11/17 02:57:39;;;;;;;2.25;1.30;;;;;;;-7.75;53.81;97391.44;6191962;28;20058;-67
2022/11/17 03:01:08;;;;;;;1.98;1.58;;;;;;;-7.86;54.39;97387.88;6188212;28;20050;-66
2022/11/17 03:04:41;;;;;;;2.08;1.80;;;;;;;-7.81;53.58;97386.25;6178351;28;20069;-68
2022/11/17 03:07:43;;;;;;;2.30;1.30;;;;;;;-7.80;54.33;97393.06;6170366;28;20054;-67
2022/11/17 03:10:57;;;;;;;2.53;1.70;;;;;;;-7.76;54.18;97399.09;6164498;28;20497;-67
2022/11/17 03:14:28;;;;;;;7.25;2.67;;;;;;;-7.74;54.03;97407.63;6176823;28;20054;-67
2022/11/17 03:17:47;;;;;;;4.60;2.42;;;;;;;-7.72;54.01;97417.03;6169528;28;20047;-67
2022/11/17 03:21:20;;;;;;;5.65;2.00;;;;;;;-7.71;54.16;97421.31;6173742;28;20050;-68
2022/11/17 03:24:41;;;;;;;5.95;2.15;;;;;;;-7.65;53.53;97427.34;6174648;28;20050;-66
2022/11/17 03:27:48;;;;;;;2.97;1.90;;;;;;;-7.62;53.53;97427.41;6170685;28;20038;-67
2022/11/17 03:30:55;;;;;;;3.70;1.95;;;;;;;-7.61;53.83;97441.88;6174532;28;20042;-67
2022/11/17 03:33:58;;;;;;;3.30;1.58;;;;;;;-7.57;53.51;97436.00;6176142;28;20054;-67
2022/11/17 03:37:07;;;;;;;4.28;2.25;;;;;;;-7.55;53.50;97444.56;6176183;28;20046;-67
2022/11/17 03:40:12;;;;;;;2.33;1.98;;;;;;;-7.61;53.42;97450.44;6179032;28;20045;-66
2022/11/17 03:43:19;;;;;;;6.20;2.45;;;;;;;-7.63;53.19;97458.91;6178687;28;20034;-66
2022/11/17 03:46:25;;;;;;;2.67;1.50;;;;;;;-7.63;53.40;97456.34;6177468;28;20128;-66
2022/11/17 03:49:41;;;;;;;3.55;1.42;;;;;;;-7.56;53.21;97455.59;6180877;28;20050;-68
2022/11/17 03:52:44;;;;;;;3.17;1.60;;;;;;;-7.55;53.50;97470.13;6193612;28;20042;-67
2022/11/17 03:56:05;;;;;;;1.55;1.27;;;;;;;-7.54;53.03;97466.72;6191439;28;20137;-66
2022/11/17 03:59:38;;;;;;;2.28;1.30;;;;;;;-7.49;53.09;97475.31;6193388;28;20093;-66
2022/11/17 04:02:53;;;;;;;2.60;2.00;;;;;;;-7.48;52.79;97477.03;6177066;28;20050;-66
2022/11/17 04:05:57;;;;;;;3.20;1.40;;;;;;;-7.45;53.12;97488.16;6176876;28;20050;-67
2022/11/17 04:08:59;;;;;;;4.90;1.73;;;;;;;-7.47;53.19;97481.31;6164109;28;20058;-66
2022/11/17 04:18:59;;;;;;;1.63;1.30;;;;;;;-7.26;51.99;97483.34;6156482;28;20054;-66
2022/11/17 04:22:04;;;;;;;1.80;1.48;;;;;;;-7.22;52.24;97490.19;6162845;28;20046;-66
2022/11/17 04:25:07;;;;;;;;;;;;;;;-7.15;52.73;97496.28;6185071;28;20448;-66
2022/11/17 04:31:34;;;;;;;2.38;1.77;;;;;;;-6.91;52.51;97505.97;6181142;28;20046;-68
2022/11/17 04:34:41;;;;;;;2.33;2.08;;;;;;;-6.90;52.70;97500.91;6183267;28;20593;-66
2022/11/17 04:37:46;;;;;;;3.72;1.95;;;;;;;-6.86;51.96;97507.78;6185156;28;20133;-66
2022/11/17 04:44:24;;;;;;;3.30;1.80;;;;;;;-6.66;52.52;97502.06;6179605;28;20512;-66
2022/11/17 04:47:29;;;;;;;2.45;2.25;;;;;;;-6.60;52.04;97508.09;6184507;28;20129;-67
2022/11/17 04:50:32;;;;;;;;;;;;;;;-6.31;51.83;97515.31;6186548;28;20038;-67
2022/11/17 04:53:37;;;;;;;3.30;2.10;;;;;;;-6.19;51.73;97517.16;6183132;28;19949;-66
2022/11/17 04:56:42;;;;;;;1.92;1.65;;;;;;;-6.06;51.48;97526.66;6190684;28;20046;-66
2022/11/17 04:59:44;;;;;;;;;;;;;;;-5.94;50.44;97520.84;6199424;28;20428;-67
2022/11/17 05:02:48;;;;;;;3.90;3.03;;;;;;;-5.97;49.51;97529.34;6195528;28;19921;-67
2022/11/17 05:05:52;;;;;;;;;;;;;;;-5.85;49.33;97517.47;6182263;28;20512;-66
2022/11/17 05:08:58;;;;;;;3.72;2.40;;;;;;;-5.95;49.31;97519.94;6177860;28;19921;-66
2022/11/17 05:18:48;;;;;;;3.45;2.45;;;;;;;-5.81;47.75;97527.75;6195900;28;20057;-66
2022/11/17 05:21:52;;;;;;;;;;;;;;;-5.67;48.11;97540.69;6224262;28;20124;-66
2022/11/17 05:24:57;;;;;;;2.03;1.58;;;;;;;-5.56;48.15;97536.53;6187959;28;20292;-66
2022/11/17 05:28:00;;;;;;;;;;;;;;;-5.33;48.16;97543.56;6180578;28;20465;-67
2022/11/17 05:31:04;;;;;;;2.38;1.48;;;;;;;-5.13;46.94;97544.59;6176189;28;19925;-67
2022/11/17 05:34:11;;;;;;;2.38;1.60;;;;;;;-5.13;47.26;97549.72;6174920;28;20188;-67
2022/11/17 05:37:16;;;;;;;2.13;1.77;;;;;;;-5.07;46.21;97544.63;6179244;28;20083;-67
2022/11/17 05:40:18;;;;;;;;;;;;;;;-5.07;46.84;97547.19;6177265;28;20039;-67
2022/11/17 05:43:23;;;;;;;1.40;1.30;;;;;;;-4.85;46.15;97555.06;6178642;28;19917;-66
2022/11/17 05:46:26;;;;;;;1.95;1.63;;;;;;;-4.71;45.49;97558.56;6171876;28;20405;-66
2022/11/17 05:49:30;;;;;;;1.08;1.05;;;;;;;-4.57;45.71;97556.94;6170396;28;20176;-65
2022/11/17 05:52:34;;;;;;;1.38;1.27;;;;;;;-4.73;45.91;97557.69;6174471;28;20182;-66
2022/11/17 05:55:38;;;;;;;2.25;1.17;;;;;;;-4.62;45.96;97553.47;6173760;28;20553;-66
2022/11/17 05:58:42;;;;;;;;;;;;;;;-4.66;45.60;97567.16;6177850;28;20042;-67
2022/11/17 06:01:54;;;;;;;2.42;1.38;;;;;;;-4.81;44.91;97559.34;6156172;28;19944;-67
2022/11/17 06:04:59;;;;;;;1.35;0.70;;;;;;;-4.75;44.72;97567.13;6169765;28;20042;-67
2022/11/17 06:08:02;;;;;;;;;;;;;;;-4.75;43.88;97565.41;6172901;28;20786;-67
2022/11/17 06:11:06;;;;;;;2.03;1.50;;;;;;;-5.15;44.33;97566.81;6166547;28;20300;-67
2022/11/17 06:14:08;;;;;;;;;;;;;;;-5.17;44.96;97568.50;6193651;28;20145;-67
2022/11/17 06:17:22;;;;;;;2.85;1.73;;;;;;;-5.26;44.20;97579.56;6198186;28;19922;-67
2022/11/17 06:20:38;;;;;;;2.53;1.63;;;;;;;-5.28;44.57;97570.13;6174634;28;20046;-68
2022/11/17 06:23:45;;;;;;;3.50;1.85;;;;;;;-5.26;43.51;97576.13;6174889;28;20401;-67
2022/11/17 06:26:49;;;;;;;1.58;1.27;;;;;;;-5.42;43.98;97578.56;6170939;28;20065;-67
2022/11/17 06:29:55;;;;;;;2.80;2.03;;;;;;;-3.96;42.37;97588.91;6172413;28;20588;-66
2022/11/17 06:33:00;;;;;;;1.70;1.20;;;;;;;-0.03;36.03;97586.59;6172830;28;20136;-67
2022/11/17 06:36:07;;;;;;;1.67;1.27;;;;;;;3.92;31.16;97597.25;6169661;28;20039;-67
2022/11/17 06:39:11;;;;;;;1.55;1.08;;;;;;;7.61;27.92;97587.28;6176310;28;20456;-67
2022/11/17 06:42:16;;;;;;;2.03;1.05;;;;;;;10.65;24.54;97593.06;6172038;28;20046;-67
2022/11/17 06:45:19;;;;;;;;;;;;;;;13.28;23.74;97613.72;6175396;28;20038;-66
2022/11/17 06:48:25;;;;;;;0.70;0.70;;;;;;;14.87;21.91;97617.22;6171394;28;19929;-66
2022/11/17 06:51:30;;;;;;;1.23;0.90;;;;;;;16.51;20.43;97616.63;6168745;28;20046;-66
2022/11/17 06:54:35;;;;;;;1.73;1.05;;;;;;;17.77;19.08;97614.59;6175064;28;20049;-66
2022/11/17 06:57:40;;;;;;;1.20;1.10;;;;;;;18.47;18.06;97615.03;6172257;28;20042;-67
2022/11/17 07:00:43;;;;;;;3.45;1.40;;;;;;;18.95;17.47;97619.81;6178504;28;20038;-66
2022/11/17 07:03:52;;;;;;;1.08;0.88;;;;;;;19.63;15.74;97602.19;6174646;28;20541;-65
2022/11/17 07:06:57;;;;;;;1.40;0.65;;;;;;;20.18;14.94;97607.88;6183699;28;20501;-66
2022/11/17 07:10:02;;;;;;;1.00;0.70;;;;;;;21.57;13.96;97605.47;6188525;28;20172;-66
2022/11/17 07:13:08;;;;;;;1.10;0.68;;;;;;;22.24;13.15;97609.50;6170008;28;20042;-66
2022/11/17 07:16:16;;;;;;;1.17;0.73;;;;;;;23.01;10.59;97596.28;6167727;28;20057;-66
2022/11/17 07:19:21;;;;;;;1.75;0.90;;;;;;;23.92;12.52;97590.22;6170614;28;20054;-66
2022/11/17 07:22:25;;;;;;;1.75;0.60;;;;;;;24.39;11.84;97589.59;6174790;28;20493;-66
2022/11/17 07:25:30;;;;;;;1.25;1.00;;;;;;;23.89;11.92;97596.81;6172122;28;21097;-66
2022/11/17 07:28:36;;;;;;;2.55;1.65;;;;;;;24.45;11.26;97597.00;6161971;28;20303;-66
2022/11/17 07:31:42;;;;;;;2.80;1.40;;;;;;;24.65;10.81;97598.31;6171858;28;20046;-67
2022/11/17 07:34:46;;;;;;;3.60;2.22;;;;;;;23.54;11.41;97597.84;6170642;28;20038;-67
2022/11/17 07:37:50;;;;;;;4.68;2.50;;;;;;;22.20;12.06;97602.78;6178494;28;20042;-67
2022/11/17 07:40:59;;;;;;;3.13;2.35;;;;;;;21.94;11.10;97598.16;6170144;28;20038;-66
2022/11/17 07:44:05;;;;;;;5.35;3.17;;;;;;;22.33;11.78;97599.69;6175358;28;20371;-67
2022/11/17 07:47:09;;;;;;;4.75;3.10;;;;;;;21.03;12.19;97603.47;6168097;28;20046;-68
2022/11/17 07:50:15;;;;;;;4.25;2.95;;;;;;;19.34;12.75;97590.63;6170945;28;20050;-67
2022/11/17 07:53:20;;;;;;;3.60;2.17;;;;;;;17.93;13.65;97599.06;6173566;28;20042;-67
2022/11/17 07:56:25;;;;;;;2.53;1.80;;;;;;;16.95;13.76;97596.34;6189048;28;20421;-66
2022/11/17 07:59:30;;;;;;;2.45;1.42;;;;;;;16.13;14.64;97596.47;6189817;28;20042;-67
2022/11/17 08:02:32;;;;;;;1.00;0.82;;;;;;;16.03;14.73;97605.28;6176279;28;20062;-67
2022/11/17 08:05:39;;;;;;;1.35;1.08;;;;;;;15.97;14.54;97603.91;6191365;28;20409;-66
2022/11/17 08:08:43;;;;;;;1.08;0.98;;;;;;;15.35;15.14;97596.13;6158495;28;20534;-66
2022/11/17 08:11:48;;;;;;;3.40;0.63;;;;;;;14.97;15.38;97602.34;6173284;28;20042;-67
2022/11/17 08:14:53;;;;;;;3.20;1.15;;;;;;;14.19;15.67;97603.31;6172592;28;20050;-66
2022/11/17 08:18:00;;;;;;;0.98;0.80;;;;;;;13.13;15.83;97598.78;6166129;28;20046;-67
2022/11/17 08:21:12;;;;;;;1.10;0.70;;;;;;;11.87;16.38;97580.09;6172823;28;20042;-66
2022/11/17 08:24:17;;;;;;;1.23;0.60;;;;;;;11.32;16.85;97593.75;6169381;28;20034;-67
2022/11/17 08:27:22;;;;;;;1.02;0.77;;;;;;;11.29;16.77;97596.56;6158507;28;20050;-66
2022/11/17 08:30:29;;;;;;;0.75;0.70;;;;;;;10.59;17.20;97599.50;6168422;28;20046;-67
2022/11/17 08:33:33;;;;;;;1.17;0.90;;;;;;;9.96;17.79;97600.09;6173748;28;20042;-66
2022/11/17 08:36:39;;;;;;;1.95;0.82;;;;;;;9.29;18.00;97596.41;6170698;28;20203;-67
2022/11/17 08:39:42;;;;;;;1.00;0.85;;;;;;;8.88;18.63;97601.81;6175439;28;20038;-67
2022/11/17 08:42:45;;;;;;;1.10;0.90;;;;;;;9.06;18.62;97609.75;6169086;28;20038;-67
2022/11/17 08:45:48;;;;;;;1.58;1.35;;;;;;;8.19;18.85;97594.44;6166199;28;20050;-67
2022/11/17 08:48:53;;;;;;;1.35;1.25;;;;;;;7.99;19.46;97603.16;6173737;28;20710;-67
2022/11/17 08:51:58;;;;;;;2.45;1.20;;;;;;;8.28;19.61;97619.38;6177236;28;20046;-66
2022/11/17 08:55:05;;;;;;;1.13;1.02;;;;;;;7.81;19.53;97617.91;6173468;28;20061;-66
2022/11/17 08:58:11;;;;;;;1.75;1.40;;;;;;;6.79;20.76;97621.97;6195544;28;20524;-67
2022/11/17 09:01:17;;;;;;;2.53;1.40;;;;;;;6.13;21.34;97617.38;6189142;28;22423;-67
2022/11/17 09:04:23;;;;;;;1.95;1.60;;;;;;;5.48;22.21;97607.38;6186536;28;20104;-66
2022/11/17 09:07:31;;;;;;;2.17;1.88;;;;;;;5.42;22.61;97612.81;6165766;28;20502;-67
2022/11/17 09:10:37;;;;;;;2.38;1.33;;;;;;;5.80;22.38;97614.13;6174415;28;20449;-67
2022/11/17 09:13:39;;;;;;;2.03;1.40;;;;;;;6.35;22.06;97620.09;6177444;28;20050;-68
2022/11/17 09:16:45;;;;;;;2.03;1.30;;;;;;;5.82;22.44;97615.78;6172884;28;20038;-68
2022/11/17 09:19:52;;;;;;;1.77;1.38;;;;;;;5.11;22.75;97619.00;6181391;28;20050;-67
2022/11/17 09:22:53;;;;;;;1.20;1.10;;;;;;;4.21;24.02;97622.47;6173588;28;20057;-67
2022/11/17 09:25:58;;;;;;;1.73;1.63;;;;;;;3.21;25.04;97625.03;6180136;28;20498;-67
2022/11/17 09:29:02;;;;;;;3.38;1.88;;;;;;;2.41;26.35;97628.53;6171461;28;20136;-67
2022/11/17 09:32:08;;;;;;;3.20;1.92;;;;;;;1.87;26.92;97628.69;6174241;28;20046;-67
2022/11/17 09:35:10;;;;;;;2.40;1.90;;;;;;;1.73;27.22;97627.22;6181205;28;20046;-67
2022/11/17 09:38:16;;;;;;;1.10;0.93;;;;;;;2.17;26.83;97628.09;6171270;28;20051;-67
2022/11/17 09:41:22;;;;;;;3.38;1.42;;;;;;;1.66;27.81;97635.97;6177640;28;20221;-67
2022/11/17 09:44:38;;;;;;;0.88;0.88;;;;;;;0.87;28.40;97638.91;6196663;28;20104;-67
2022/11/17 09:48:05;;;;;;;1.08;0.98;;;;;;;0.58;28.92;97634.16;6194070;28;20062;-66
2022/11/17 09:51:14;;;;;;;2.55;1.50;;;;;;;0.31;29.54;97637.94;6187253;28;20425;-67
2022/11/17 09:54:42;;;;;;;1.98;1.20;;;;;;;0.11;29.99;97645.06;6199635;28;20052;-68
2022/11/17 09:57:53;;;;;;;1.92;1.40;;;;;;;-0.17;31.07;97640.19;6180882;28;20046;-67
2022/11/17 10:00:56;;;;;;;1.60;1.45;;;;;;;0.78;29.27;97648.56;6193734;28;20054;-67
2022/11/17 10:04:03;;;;;;;1.92;1.33;;;;;;;2.06;27.69;97649.97;6195577;28;20042;-67
2022/11/17 10:07:05;;;;;;;2.63;1.60;;;;;;;2.79;26.71;97652.84;6180844;28;20038;-67
2022/11/17 10:10:15;;;;;;;1.23;1.13;;;;;;;2.79;26.76;97650.25;6196900;28;20129;-67
2022/11/17 10:13:24;;;;;;;2.03;1.33;;;;;;;2.82;26.61;97647.56;6195615;28;20050;-66
2022/11/17 10:16:28;;;;;;;2.78;1.70;;;;;;;2.43;26.78;97656.16;6182117;28;20610;-66
2022/11/17 10:19:38;;;;;;;2.95;1.33;;;;;;;1.76;27.80;97655.69;6197540;28;20058;-67
2022/11/17 10:22:43;;;;;;;1.15;1.05;;;;;;;0.60;29.41;97649.69;6194899;28;20034;-67
2022/11/17 10:25:47;;;;;;;3.45;1.98;;;;;;;-0.67;32.26;97659.59;6191782;28;20057;-67
2022/11/17 10:29:03;;;;;;;;;;;;;;;-1.33;32.88;97661.72;6192349;28;20074;-67
2022/11/17 10:32:13;;;;;;;1.77;1.50;;;;;;;-2.03;34.30;97648.25;6192145;28;19917;-67
2022/11/17 10:35:18;;;;;;;1.85;1.52;;;;;;;-2.31;34.85;97662.94;6197594;28;20050;-68
2022/11/17 10:38:28;;;;;;;5.07;3.33;;;;;;;-2.53;35.27;97651.78;6195475;28;20054;-67
2022/11/17 10:41:35;;;;;;;3.78;2.40;;;;;;;-2.54;35.42;97657.78;6192833;28;20549;-68
2022/11/17 10:44:40;;;;;;;4.70;2.70;;;;;;;-2.83;35.82;97653.50;6194692;28;20433;-67
2022/11/17 10:47:42;;;;;;;5.35;2.47;;;;;;;-3.21;36.61;97656.88;6193578;28;20140;-66
2022/11/17 10:50:56;;;;;;;3.08;1.75;;;;;;;-3.48;36.87;97672.22;6192957;28;20673;-68
2022/11/17 10:54:19;;;;;;;2.28;1.95;;;;;;;-3.70;36.98;97667.03;6194594;28;20046;-67
2022/11/17 10:57:25;;;;;;;5.57;2.00;;;;;;;-3.90;37.60;97666.09;6189885;28;20050;-67
2022/11/17 11:00:34;;;;;;;4.70;1.90;;;;;;;-3.89;38.02;97670.34;6194445;28;20042;-67
2022/11/17 11:03:35;;;;;;;5.68;2.70;;;;;;;-4.12;38.38;97677.94;6191515;28;20050;-67
2022/11/17 11:06:39;;;;;;;2.53;1.67;;;;;;;-4.16;38.43;97682.22;6194407;28;20053;-67
2022/11/17 11:09:47;;;;;;;2.75;1.70;;;;;;;-4.26;38.82;97690.72;6168568;28;20030;-67
2022/11/17 11:13:07;;;;;;;1.33;0.93;;;;;;;-4.41;38.77;97680.34;6171440;28;20175;-68
2022/11/17 11:16:11;;;;;;;1.83;1.48;;;;;;;-4.58;39.01;97685.34;6185083;28;20429;-70
2022/11/17 11:19:17;;;;;;;2.33;1.27;;;;;;;-4.60;38.87;97690.47;6189275;28;20133;-66
2022/11/17 11:22:36;;;;;;;1.53;1.20;;;;;;;-4.85;39.33;97694.53;6195162;28;20124;-69
2022/11/17 11:25:49;;;;;;;1.98;1.42;;;;;;;-5.04;39.85;97692.63;6190126;28;20469;-70
2022/11/17 11:29:02;;;;;;;3.78;2.00;;;;;;;-4.99;40.41;97690.97;6194987;28;20046;-67
2022/11/17 11:32:21;;;;;;;3.67;2.40;;;;;;;-5.29;40.65;97701.81;6192394;28;20046;-66
2022/11/17 11:35:49;;;;;;;3.17;2.10;;;;;;;-5.20;41.94;97707.03;6196930;28;20038;-64
2022/11/17 11:39:19;;;;;;;4.95;2.22;;;;;;;-5.71;42.10;97713.28;6184281;28;20050;-64
2022/11/17 11:42:42;;;;;;;2.75;2.17;;;;;;;-5.95;42.72;97701.03;6176324;28;20050;-64
2022/11/17 11:45:56;;;;;;;2.72;1.65;;;;;;;-6.04;43.58;97712.00;6192254;28;20046;-64
2022/11/17 11:49:12;;;;;;;2.60;1.95;;;;;;;-6.10;43.43;97709.38;6195557;28;20054;-64
2022/11/17 11:52:25;;;;;;;4.28;1.98;;;;;;;-6.22;44.08;97714.34;6183857;28;20145;-64
2022/11/17 11:55:33;;;;;;;2.38;1.75;;;;;;;-6.17;43.69;97710.13;6195151;28;20391;-64
2022/11/17 11:58:41;;;;;;;5.40;1.80;;;;;;;-6.36;44.03;97721.81;6194297;28;20042;-64
2022/11/17 12:02:18;;;;;;;3.05;1.88;;;;;;;-6.46;44.50;97720.78;6186166;28;20393;-64
2022/11/17 12:05:37;;;;;;;3.13;2.25;;;;;;;-6.55;44.38;97730.88;6187022;28;20535;-67
2022/11/17 12:08:48;;;;;;;2.70;1.80;;;;;;;-6.65;44.09;97719.66;6189814;28;20047;-64
2022/11/17 12:12:00;;;;;;;5.57;2.30;;;;;;;-6.64;44.40;97726.47;6188435;28;20125;-64
2022/11/17 12:15:32;;;;;;;3.05;2.72;;;;;;;-6.58;44.84;97725.72;6189619;28;20455;-65
2022/11/17 12:18:33;;;;;;;5.60;2.45;;;;;;;-6.72;44.78;97716.97;6194744;28;20057;-65
2022/11/17 12:21:37;;;;;;;4.13;1.95;;;;;;;-6.78;45.50;97726.25;6192896;28;20042;-65
2022/11/17 12:24:40;;;;;;;3.70;1.85;;;;;;;-6.74;45.13;97729.72;6191773;28;20049;-64
2022/11/17 12:27:49;;;;;;;3.72;2.30;;;;;;;-6.82;45.29;97737.28;6194116;28;20046;-64
2022/11/17 12:30:52;;;;;;;3.63;2.05;;;;;;;-6.92;45.59;97734.53;6189960;28;20061;-65
2022/11/17 12:34:01;;;;;;;6.47;2.90;;;;;;;-7.00;46.13;97731.84;6207147;28;20515;-64
2022/11/17 12:37:16;;;;;;;4.53;2.53;;;;;;;-6.95;46.04;97734.47;6212443;28;20042;-64
2022/11/17 12:40:46;;;;;;;4.80;2.65;;;;;;;-6.92;46.94;97740.50;6196189;28;20528;-65
2022/11/17 12:43:48;;;;;;;5.18;2.55;;;;;;;-6.83;46.45;97730.44;6191824;28;20052;-66
2022/11/17 12:47:01;;;;;;;4.38;2.75;;;;;;;-7.19;47.30;97734.88;6191124;28;20046;-64
2022/11/17 12:50:20;;;;;;;5.38;3.20;;;;;;;-7.29;46.91;97734.72;6181134;28;20421;-64
2022/11/17 12:53:48;;;;;;;4.40;2.53;;;;;;;-7.21;46.77;97736.56;6183162;28;20675;-63
2022/11/17 12:57:17;;;;;;;6.10;3.08;;;;;;;-7.05;47.57;97738.56;6181566;28;20042;-64
2022/11/17 13:00:23;;;;;;;4.75;2.88;;;;;;;-6.99;47.33;97746.38;6174062;28;20417;-64
2022/11/17 13:03:53;;;;;;;6.28;2.92;;;;;;;-6.89;47.59;97738.00;6178777;28;20045;-61
2022/11/17 13:06:59;;;;;;;16.73;7.50;;;;;;;-6.97;48.28;97737.00;6173486;28;20117;-61
2022/11/17 13:10:02;;;;;;;10.98;4.60;;;;;;;-6.98;47.95;97740.41;6172634;28;20830;-61
2022/11/17 13:13:22;;;;;;;4.43;2.92;;;;;;;-6.86;48.26;97739.75;6175819;28;20034;-62
2022/11/17 13:16:25;;;;;;;6.82;2.63;;;;;;;-6.96;49.06;97746.41;6176986;28;20057;-62
2022/11/17 13:19:36;;;;;;;5.75;2.90;;;;;;;-7.04;49.45;97741.16;6183898;28;20043;-62
2022/11/17 13:22:37;;;;;;;6.50;3.67;;;;;;;-7.06;48.85;97752.19;6181287;28;20046;-63
2022/11/17 13:25:38;;;;;;;8.88;3.15;;;;;;;-7.07;48.95;97745.38;6183852;28;20054;-62
2022/11/17 13:28:40;;;;;;;5.35;2.42;;;;;;;-7.13;49.12;97756.34;6184039;28;20536;-62
2022/11/17 13:31:44;;;;;;;;;;;;;;;-7.17;48.48;97749.44;6181073;28;20133;-62
2022/11/17 13:34:52;;;;;;;7.82;2.90;;;;;;;-7.24;49.49;97753.56;6178004;28;19922;-62
2022/11/17 13:38:11;;;;;;;5.20;2.85;;;;;;;-7.36;50.00;97753.34;6171750;28;20130;-64
2022/11/17 13:41:16;;;;;;;7.45;2.50;;;;;;;-7.50;50.07;97757.28;6177587;28;20050;-64
2022/11/17 13:44:25;;;;;;;7.20;2.90;;;;;;;-7.57;51.24;97758.03;6187393;28;20042;-61
2022/11/17 13:47:42;;;;;;;5.10;2.63;;;;;;;-7.55;51.90;97761.47;6178289;28;21152;-62
2022/11/17 13:50:44;;;;;;;4.15;2.38;;;;;;;-7.73;52.14;97757.72;6177135;28;20050;-63
2022/11/17 13:53:49;;;;;;;4.88;2.10;;;;;;;-7.83;52.29;97755.78;6173008;28;20054;-63
2022/11/17 13:57:04;;;;;;;4.68;2.65;;;;;;;-7.89;53.03;97749.69;6173506;28;20038;-67
2022/11/17 14:00:14;;;;;;;6.70;2.92;;;;;;;-7.84;53.17;97759.19;6165722;28;20062;-64
2022/11/17 14:03:39;;;;;;;7.88;3.08;;;;;;;-7.81;54.09;97759.25;6176464;28;20054;-67
2022/11/17 14:06:59;;;;;;;6.35;2.08;;;;;;;-7.81;53.83;97758.34;6178484;28;20058;-66
2022/11/17 14:10:36;;;;;;;5.78;2.88;;;;;;;-7.88;53.75;97762.47;6177654;28;20042;-65
2022/11/17 14:14:00;;;;;;;6.15;3.10;;;;;;;-7.91;54.10;97757.31;6155032;28;20506;-72
2022/11/17 14:17:27;;;;;;;5.00;3.30;;;;;;;-7.83;54.65;97753.22;6175558;28;20260;-68
2022/11/17 14:20:34;;;;;;;6.55;3.17;;;;;;;-7.83;54.44;97763.44;6180335;28;20817;-66
2022/11/17 14:23:35;;;;;;;11.60;5.32;;;;;;;-7.73;54.03;97761.94;6185498;28;20069;-67
2022/11/17 14:26:43;;;;;;;7.15;3.03;;;;;;;-7.65;54.47;97760.41;6189665;28;20085;-67
2022/11/17 14:29:50;;;;;;;4.93;3.25;;;;;;;-7.54;53.86;97768.31;6198988;28;20046;-66
2022/11/17 14:32:54;;;;;;;7.32;3.30;;;;;;;-7.42;53.64;97765.97;6195881;28;20039;-66
2022/11/17 14:36:01;;;;;;;6.40;4.25;;;;;;;-7.35;54.20;97767.84;6181108;28;20042;-68
2022/11/17 14:39:03;;;;;;;2.78;2.20;;;;;;;-7.30;53.75;97766.25;6197875;28;20190;-67
2022/11/17 14:42:09;;;;;;;11.70;3.97;;;;;;;-7.20;54.36;97761.31;6196658;28;20045;-66
2022/11/17 14:45:13;;;;;;;8.25;4.72;;;;;;;-7.17;54.49;97764.78;6192929;28;21007;-68
2022/11/17 14:48:18;;;;;;;12.05;4.85;;;;;;;-7.07;54.00;97765.81;6180737;28;20050;-67
2022/11/17 14:51:22;;;;;;;8.43;4.40;;;;;;;-6.93;54.16;97774.63;6184090;28;20092;-67
2022/11/17 14:54:27;;;;;;;8.52;3.92;;;;;;;-6.81;53.48;97774.81;6189904;28;20042;-67
2022/11/17 14:57:31;;;;;;;13.13;4.30;;;;;;;-6.74;53.67;97772.38;6181531;28;20042;-69
2022/11/17 15:00:32;;;;;;;12.65;5.68;;;;;;;-6.59;53.59;97770.09;6179878;28;20137;-68
2022/11/17 15:03:33;;;;;;;8.13;4.18;;;;;;;-6.57;53.50;97773.50;6178433;28;20042;-67
2022/11/17 15:06:36;;;;;;;8.52;4.15;;;;;;;-6.52;53.90;97771.91;6187076;28;20045;-66
2022/11/17 15:09:39;;;;;;;7.28;2.72;;;;;;;-6.49;53.94;97766.81;6178636;28;20451;-66
2022/11/17 15:12:43;;;;;;;10.90;3.53;;;;;;;-6.57;54.98;97768.41;6178912;28;20050;-67
2022/11/17 15:15:47;;;;;;;5.45;2.65;;;;;;;-6.59;54.78;97764.97;6182212;28;20042;-67
2022/11/17 15:18:48;;;;;;;6.93;3.88;;;;;;;-6.64;54.97;97767.44;6173142;28;20049;-67
2022/11/17 15:21:52;;;;;;;7.30;3.53;;;;;;;-6.69;55.18;97761.38;6177698;28;20082;-67